sensor_id;sensor_type;location;lat;lon;timestamp;P1;durP1;ratioP1;P2;durP2;ratioP2
70369;SDS011;57790;51.356;-2.906;2023-08-06T00:01:50;6.17;;;1.00;;
70369;SDS011;57790;51.356;-2.906;2023-08-06T00:04:50;5.07;;;1.00;;
70369;SDS011;57790;51.356;-2.906;2023-08-06T00:07:51;3.72;;;1.08;;
70369;SDS011;57790;51.356;-2.906;2023-08-06T00:10:51;4.80;;;0.90;;
70369;SDS011;57790;51.356;-2.906;2023-08-06T00:13:52;3.27;;;1.07;;
70369;SDS011;57790;51.356;-2.906;2023-08-06T00:16:52;3.63;;;0.90;;
70369;SDS011;57790;51.356;-2.906;2023-08-06T00:19:52;5.23;;;1.10;;
70369;SDS011;57790;51.356;-2.906;2023-08-06T00:22:53;3.60;;;0.93;;
70369;SDS011;57790;51.356;-2.906;2023-08-06T00:25:53;4.30;;;1.00;;
70369;SDS011;57790;51.356;-2.906;2023-08-06T00:28:54;3.33;;;1.10;;
70369;SDS011;57790;51.356;-2.906;2023-08-06T00:31:54;4.00;;;1.10;;
70369;SDS011;57790;51.356;-2.906;2023-08-06T00:34:54;4.73;;;0.90;;
70369;SDS011;57790;51.356;-2.906;2023-08-06T00:37:55;3.77;;;0.90;;
70369;SDS011;57790;51.356;-2.906;2023-08-06T00:40:55;3.83;;;0.80;;
70369;SDS011;57790;51.356;-2.906;2023-08-06T00:43:55;4.43;;;1.10;;
70369;SDS011;57790;51.356;-2.906;2023-08-06T00:46:56;4.67;;;1.00;;
70369;SDS011;57790;51.356;-2.906;2023-08-06T00:49:57;3.73;;;0.90;;
70369;SDS011;57790;51.356;-2.906;2023-08-06T00:52:57;3.55;;;0.90;;
70369;SDS011;57790;51.356;-2.906;2023-08-06T00:55:58;3.63;;;0.97;;
70369;SDS011;57790;51.356;-2.906;2023-08-06T00:58:59;2.88;;;0.80;;
70369;SDS011;57790;51.356;-2.906;2023-08-06T01:02:00;4.38;;;1.00;;
70369;SDS011;57790;51.356;-2.906;2023-08-06T01:05:01;4.50;;;0.90;;
70369;SDS011;57790;51.356;-2.906;2023-08-06T01:08:06;3.13;;;0.73;;
70369;SDS011;57790;51.356;-2.906;2023-08-06T01:14:37;4.05;;;0.85;;
70369;SDS011;57790;51.356;-2.906;2023-08-06T01:17:48;3.33;;;0.80;;
70369;SDS011;57790;51.356;-2.906;2023-08-06T01:20:48;3.63;;;0.97;;
70369;SDS011;57790;51.356;-2.906;2023-08-06T01:23:49;4.10;;;0.77;;
70369;SDS011;57790;51.356;-2.906;2023-08-06T01:26:59;3.30;;;0.87;;
70369;SDS011;57790;51.356;-2.906;2023-08-06T01:30:26;3.33;;;0.73;;
70369;SDS011;57790;51.356;-2.906;2023-08-06T01:33:29;3.78;;;0.80;;
70369;SDS011;57790;51.356;-2.906;2023-08-06T01:36:33;3.92;;;0.90;;
70369;SDS011;57790;51.356;-2.906;2023-08-06T01:39:34;3.43;;;0.80;;
70369;SDS011;57790;51.356;-2.906;2023-08-06T01:42:34;3.30;;;0.90;;
70369;SDS011;57790;51.356;-2.906;2023-08-06T01:45:35;4.70;;;0.80;;
70369;SDS011;57790;51.356;-2.906;2023-08-06T01:48:35;3.50;;;0.80;;
70369;SDS011;57790;51.356;-2.906;2023-08-06T01:51:35;2.70;;;0.70;;
70369;SDS011;57790;51.356;-2.906;2023-08-06T01:54:36;3.17;;;0.80;;
70369;SDS011;57790;51.356;-2.906;2023-08-06T01:57:36;4.20;;;0.90;;
70369;SDS011;57790;51.356;-2.906;2023-08-06T02:00:37;3.53;;;0.80;;
70369;SDS011;57790;51.356;-2.906;2023-08-06T02:03:37;3.40;;;0.73;;
70369;SDS011;57790;51.356;-2.906;2023-08-06T02:06:37;4.05;;;0.80;;
70369;SDS011;57790;51.356;-2.906;2023-08-06T02:09:38;3.67;;;0.90;;
70369;SDS011;57790;51.356;-2.906;2023-08-06T02:12:38;4.77;;;1.17;;
70369;SDS011;57790;51.356;-2.906;2023-08-06T02:15:42;3.00;;;0.70;;
70369;SDS011;57790;51.356;-2.906;2023-08-06T02:18:49;3.00;;;0.88;;
70369;SDS011;57790;51.356;-2.906;2023-08-06T02:21:49;3.10;;;0.90;;
70369;SDS011;57790;51.356;-2.906;2023-08-06T02:24:50;4.37;;;0.90;;
70369;SDS011;57790;51.356;-2.906;2023-08-06T02:27:50;3.53;;;0.82;;
70369;SDS011;57790;51.356;-2.906;2023-08-06T02:30:51;3.93;;;0.70;;
70369;SDS011;57790;51.356;-2.906;2023-08-06T02:33:51;3.70;;;0.90;;
70369;SDS011;57790;51.356;-2.906;2023-08-06T02:36:53;3.08;;;0.80;;
70369;SDS011;57790;51.356;-2.906;2023-08-06T02:39:54;3.77;;;0.90;;
70369;SDS011;57790;51.356;-2.906;2023-08-06T02:42:54;3.97;;;0.90;;
70369;SDS011;57790;51.356;-2.906;2023-08-06T02:45:57;4.40;;;0.82;;
70369;SDS011;57790;51.356;-2.906;2023-08-06T02:48:58;4.53;;;0.90;;
70369;SDS011;57790;51.356;-2.906;2023-08-06T02:51:59;3.27;;;0.73;;
70369;SDS011;57790;51.356;-2.906;2023-08-06T02:54:59;4.40;;;0.80;;
70369;SDS011;57790;51.356;-2.906;2023-08-06T02:58:00;5.30;;;0.87;;
70369;SDS011;57790;51.356;-2.906;2023-08-06T03:01:05;4.38;;;0.95;;
70369;SDS011;57790;51.356;-2.906;2023-08-06T03:04:07;3.17;;;0.80;;
70369;SDS011;57790;51.356;-2.906;2023-08-06T03:07:07;4.50;;;0.97;;
70369;SDS011;57790;51.356;-2.906;2023-08-06T03:10:08;4.43;;;0.80;;
70369;SDS011;57790;51.356;-2.906;2023-08-06T03:13:08;4.10;;;0.70;;
70369;SDS011;57790;51.356;-2.906;2023-08-06T03:16:09;4.63;;;0.90;;
70369;SDS011;57790;51.356;-2.906;2023-08-06T03:19:09;3.57;;;0.77;;
70369;SDS011;57790;51.356;-2.906;2023-08-06T03:22:09;4.60;;;0.80;;
70369;SDS011;57790;51.356;-2.906;2023-08-06T03:25:10;2.80;;;0.87;;
70369;SDS011;57790;51.356;-2.906;2023-08-06T03:28:10;5.07;;;1.03;;
70369;SDS011;57790;51.356;-2.906;2023-08-06T03:31:11;3.53;;;0.80;;
70369;SDS011;57790;51.356;-2.906;2023-08-06T03:34:11;3.58;;;0.70;;
70369;SDS011;57790;51.356;-2.906;2023-08-06T03:37:11;3.60;;;0.80;;
70369;SDS011;57790;51.356;-2.906;2023-08-06T03:40:12;4.53;;;0.90;;
70369;SDS011;57790;51.356;-2.906;2023-08-06T03:43:12;3.37;;;0.80;;
70369;SDS011;57790;51.356;-2.906;2023-08-06T03:46:12;3.33;;;0.87;;
70369;SDS011;57790;51.356;-2.906;2023-08-06T03:49:13;2.77;;;0.80;;
70369;SDS011;57790;51.356;-2.906;2023-08-06T03:52:13;4.78;;;1.10;;
70369;SDS011;57790;51.356;-2.906;2023-08-06T03:55:14;2.53;;;0.73;;
70369;SDS011;57790;51.356;-2.906;2023-08-06T03:58:14;3.77;;;0.90;;
70369;SDS011;57790;51.356;-2.906;2023-08-06T04:01:14;3.70;;;0.90;;
70369;SDS011;57790;51.356;-2.906;2023-08-06T04:04:15;2.47;;;0.70;;
70369;SDS011;57790;51.356;-2.906;2023-08-06T04:07:21;4.20;;;0.90;;
70369;SDS011;57790;51.356;-2.906;2023-08-06T04:10:27;3.40;;;0.80;;
70369;SDS011;57790;51.356;-2.906;2023-08-06T04:13:31;4.80;;;0.98;;
70369;SDS011;57790;51.356;-2.906;2023-08-06T04:16:31;5.43;;;0.93;;
70369;SDS011;57790;51.356;-2.906;2023-08-06T04:19:32;3.38;;;0.93;;
70369;SDS011;57790;51.356;-2.906;2023-08-06T04:22:32;3.43;;;0.90;;
70369;SDS011;57790;51.356;-2.906;2023-08-06T04:25:33;3.37;;;0.80;;
70369;SDS011;57790;51.356;-2.906;2023-08-06T04:28:33;4.40;;;1.00;;
70369;SDS011;57790;51.356;-2.906;2023-08-06T04:31:33;4.47;;;0.90;;
70369;SDS011;57790;51.356;-2.906;2023-08-06T04:34:34;4.73;;;1.00;;
70369;SDS011;57790;51.356;-2.906;2023-08-06T04:37:35;4.32;;;1.10;;
70369;SDS011;57790;51.356;-2.906;2023-08-06T04:40:36;4.57;;;1.00;;
70369;SDS011;57790;51.356;-2.906;2023-08-06T04:43:36;4.40;;;0.90;;
70369;SDS011;57790;51.356;-2.906;2023-08-06T04:46:37;3.03;;;0.90;;
70369;SDS011;57790;51.356;-2.906;2023-08-06T04:49:37;3.73;;;0.90;;
70369;SDS011;57790;51.356;-2.906;2023-08-06T04:52:37;3.60;;;0.70;;
70369;SDS011;57790;51.356;-2.906;2023-08-06T04:55:38;4.43;;;1.00;;
70369;SDS011;57790;51.356;-2.906;2023-08-06T04:58:38;4.13;;;1.13;;
70369;SDS011;57790;51.356;-2.906;2023-08-06T05:01:39;3.83;;;1.00;;
70369;SDS011;57790;51.356;-2.906;2023-08-06T05:04:39;3.10;;;0.90;;
70369;SDS011;57790;51.356;-2.906;2023-08-06T05:07:39;3.87;;;0.87;;
70369;SDS011;57790;51.356;-2.906;2023-08-06T05:10:41;4.57;;;0.90;;
70369;SDS011;57790;51.356;-2.906;2023-08-06T05:13:42;2.50;;;0.80;;
70369;SDS011;57790;51.356;-2.906;2023-08-06T05:16:43;4.57;;;1.00;;
70369;SDS011;57790;51.356;-2.906;2023-08-06T05:19:43;3.70;;;0.90;;
70369;SDS011;57790;51.356;-2.906;2023-08-06T05:22:44;3.87;;;1.00;;
70369;SDS011;57790;51.356;-2.906;2023-08-06T05:25:44;4.20;;;1.00;;
70369;SDS011;57790;51.356;-2.906;2023-08-06T05:28:45;2.87;;;0.87;;
70369;SDS011;57790;51.356;-2.906;2023-08-06T05:31:45;3.72;;;0.88;;
70369;SDS011;57790;51.356;-2.906;2023-08-06T05:34:46;5.47;;;1.00;;
70369;SDS011;57790;51.356;-2.906;2023-08-06T05:37:46;3.07;;;0.80;;
70369;SDS011;57790;51.356;-2.906;2023-08-06T05:40:47;3.77;;;1.00;;
70369;SDS011;57790;51.356;-2.906;2023-08-06T05:43:48;3.50;;;0.98;;
70369;SDS011;57790;51.356;-2.906;2023-08-06T05:46:48;2.93;;;0.80;;
70369;SDS011;57790;51.356;-2.906;2023-08-06T05:49:49;5.28;;;1.10;;
70369;SDS011;57790;51.356;-2.906;2023-08-06T05:52:49;3.40;;;0.90;;
70369;SDS011;57790;51.356;-2.906;2023-08-06T05:55:50;3.50;;;0.70;;
70369;SDS011;57790;51.356;-2.906;2023-08-06T05:58:50;3.50;;;0.90;;
70369;SDS011;57790;51.356;-2.906;2023-08-06T06:01:53;4.05;;;1.00;;
70369;SDS011;57790;51.356;-2.906;2023-08-06T06:04:53;3.67;;;0.90;;
70369;SDS011;57790;51.356;-2.906;2023-08-06T06:07:53;3.70;;;1.00;;
70369;SDS011;57790;51.356;-2.906;2023-08-06T06:10:54;4.03;;;0.77;;
70369;SDS011;57790;51.356;-2.906;2023-08-06T06:13:54;4.67;;;1.10;;
70369;SDS011;57790;51.356;-2.906;2023-08-06T06:16:55;2.15;;;0.63;;
70369;SDS011;57790;51.356;-2.906;2023-08-06T06:19:55;3.33;;;1.00;;
70369;SDS011;57790;51.356;-2.906;2023-08-06T06:22:56;4.07;;;0.93;;
70369;SDS011;57790;51.356;-2.906;2023-08-06T06:25:56;3.53;;;0.90;;
70369;SDS011;57790;51.356;-2.906;2023-08-06T06:28:57;3.77;;;0.97;;
70369;SDS011;57790;51.356;-2.906;2023-08-06T06:31:57;3.38;;;1.00;;
70369;SDS011;57790;51.356;-2.906;2023-08-06T06:34:59;4.25;;;1.00;;
70369;SDS011;57790;51.356;-2.906;2023-08-06T06:38:00;4.73;;;0.80;;
70369;SDS011;57790;51.356;-2.906;2023-08-06T06:41:00;3.05;;;0.85;;
70369;SDS011;57790;51.356;-2.906;2023-08-06T06:44:02;3.70;;;0.80;;
70369;SDS011;57790;51.356;-2.906;2023-08-06T06:47:02;4.32;;;1.00;;
70369;SDS011;57790;51.356;-2.906;2023-08-06T06:50:03;4.70;;;0.90;;
70369;SDS011;57790;51.356;-2.906;2023-08-06T06:53:04;3.22;;;0.63;;
70369;SDS011;57790;51.356;-2.906;2023-08-06T06:56:05;3.43;;;1.00;;
70369;SDS011;57790;51.356;-2.906;2023-08-06T06:59:05;3.70;;;1.00;;
70369;SDS011;57790;51.356;-2.906;2023-08-06T07:02:06;3.42;;;0.80;;
70369;SDS011;57790;51.356;-2.906;2023-08-06T07:05:06;2.30;;;0.83;;
70369;SDS011;57790;51.356;-2.906;2023-08-06T07:08:07;2.63;;;0.80;;
70369;SDS011;57790;51.356;-2.906;2023-08-06T07:11:07;3.73;;;0.90;;
70369;SDS011;57790;51.356;-2.906;2023-08-06T07:14:08;3.47;;;1.00;;
70369;SDS011;57790;51.356;-2.906;2023-08-06T07:17:08;3.43;;;0.83;;
70369;SDS011;57790;51.356;-2.906;2023-08-06T07:20:09;3.83;;;0.93;;
70369;SDS011;57790;51.356;-2.906;2023-08-06T07:23:09;2.58;;;0.70;;
70369;SDS011;57790;51.356;-2.906;2023-08-06T07:26:10;5.27;;;1.00;;
70369;SDS011;57790;51.356;-2.906;2023-08-06T07:29:10;3.20;;;0.83;;
70369;SDS011;57790;51.356;-2.906;2023-08-06T07:32:11;3.27;;;0.73;;
70369;SDS011;57790;51.356;-2.906;2023-08-06T07:35:11;3.45;;;0.90;;
70369;SDS011;57790;51.356;-2.906;2023-08-06T07:38:12;3.77;;;0.90;;
70369;SDS011;57790;51.356;-2.906;2023-08-06T07:41:13;6.30;;;0.80;;
70369;SDS011;57790;51.356;-2.906;2023-08-06T07:44:13;2.73;;;0.80;;
70369;SDS011;57790;51.356;-2.906;2023-08-06T07:47:13;3.30;;;0.80;;
70369;SDS011;57790;51.356;-2.906;2023-08-06T07:50:14;4.77;;;1.13;;
70369;SDS011;57790;51.356;-2.906;2023-08-06T07:53:14;3.33;;;0.90;;
70369;SDS011;57790;51.356;-2.906;2023-08-06T07:56:15;3.30;;;0.90;;
70369;SDS011;57790;51.356;-2.906;2023-08-06T07:59:15;4.25;;;0.90;;
70369;SDS011;57790;51.356;-2.906;2023-08-06T08:02:15;4.70;;;1.00;;
70369;SDS011;57790;51.356;-2.906;2023-08-06T08:05:16;3.53;;;1.00;;
70369;SDS011;57790;51.356;-2.906;2023-08-06T08:08:16;4.40;;;0.80;;
70369;SDS011;57790;51.356;-2.906;2023-08-06T08:11:17;4.23;;;0.80;;
70369;SDS011;57790;51.356;-2.906;2023-08-06T08:14:18;4.38;;;0.93;;
70369;SDS011;57790;51.356;-2.906;2023-08-06T08:17:18;3.77;;;0.90;;
70369;SDS011;57790;51.356;-2.906;2023-08-06T08:20:20;3.70;;;0.90;;
70369;SDS011;57790;51.356;-2.906;2023-08-06T08:23:21;2.13;;;0.60;;
70369;SDS011;57790;51.356;-2.906;2023-08-06T08:26:21;3.28;;;0.63;;
70369;SDS011;57790;51.356;-2.906;2023-08-06T08:29:22;3.83;;;0.87;;
70369;SDS011;57790;51.356;-2.906;2023-08-06T08:32:23;5.60;;;0.87;;
70369;SDS011;57790;51.356;-2.906;2023-08-06T08:35:23;3.55;;;0.70;;
70369;SDS011;57790;51.356;-2.906;2023-08-06T08:38:24;2.90;;;0.90;;
70369;SDS011;57790;51.356;-2.906;2023-08-06T08:41:24;3.67;;;0.63;;
70369;SDS011;57790;51.356;-2.906;2023-08-06T08:44:28;2.53;;;0.80;;
70369;SDS011;57790;51.356;-2.906;2023-08-06T08:47:31;3.15;;;0.70;;
70369;SDS011;57790;51.356;-2.906;2023-08-06T08:50:32;3.25;;;0.68;;
70369;SDS011;57790;51.356;-2.906;2023-08-06T08:53:34;3.17;;;0.90;;
70369;SDS011;57790;51.356;-2.906;2023-08-06T08:56:38;3.10;;;0.60;;
70369;SDS011;57790;51.356;-2.906;2023-08-06T08:59:38;3.00;;;0.70;;
70369;SDS011;57790;51.356;-2.906;2023-08-06T09:02:39;3.03;;;0.77;;
70369;SDS011;57790;51.356;-2.906;2023-08-06T09:05:43;2.15;;;0.80;;
70369;SDS011;57790;51.356;-2.906;2023-08-06T09:08:54;3.25;;;0.93;;
70369;SDS011;57790;51.356;-2.906;2023-08-06T09:12:02;4.77;;;0.80;;
70369;SDS011;57790;51.356;-2.906;2023-08-06T09:15:12;2.97;;;0.70;;
70369;SDS011;57790;51.356;-2.906;2023-08-06T09:18:13;2.63;;;0.70;;
70369;SDS011;57790;51.356;-2.906;2023-08-06T09:21:14;3.27;;;0.70;;
70369;SDS011;57790;51.356;-2.906;2023-08-06T09:24:16;3.38;;;0.80;;
70369;SDS011;57790;51.356;-2.906;2023-08-06T09:27:17;4.05;;;0.82;;
70369;SDS011;57790;51.356;-2.906;2023-08-06T09:30:30;3.20;;;0.90;;
70369;SDS011;57790;51.356;-2.906;2023-08-06T09:33:36;3.38;;;0.80;;
70369;SDS011;57790;51.356;-2.906;2023-08-06T09:36:41;3.90;;;1.07;;
70369;SDS011;57790;51.356;-2.906;2023-08-06T09:39:48;4.00;;;0.88;;
70369;SDS011;57790;51.356;-2.906;2023-08-06T09:42:49;2.73;;;0.90;;
70369;SDS011;57790;51.356;-2.906;2023-08-06T09:45:50;3.27;;;0.90;;
70369;SDS011;57790;51.356;-2.906;2023-08-06T09:48:51;4.22;;;0.70;;
70369;SDS011;57790;51.356;-2.906;2023-08-06T09:51:51;3.83;;;0.77;;
70369;SDS011;57790;51.356;-2.906;2023-08-06T09:54:55;4.43;;;0.80;;
70369;SDS011;57790;51.356;-2.906;2023-08-06T09:57:56;2.93;;;0.70;;
70369;SDS011;57790;51.356;-2.906;2023-08-06T10:00:59;2.63;;;0.60;;
70369;SDS011;57790;51.356;-2.906;2023-08-06T10:04:05;4.57;;;0.90;;
70369;SDS011;57790;51.356;-2.906;2023-08-06T10:07:08;5.20;;;1.05;;
70369;SDS011;57790;51.356;-2.906;2023-08-06T10:10:08;3.93;;;1.00;;
70369;SDS011;57790;51.356;-2.906;2023-08-06T10:13:09;5.53;;;0.90;;
70369;SDS011;57790;51.356;-2.906;2023-08-06T10:16:10;4.47;;;0.80;;
70369;SDS011;57790;51.356;-2.906;2023-08-06T10:19:11;5.05;;;0.80;;
70369;SDS011;57790;51.356;-2.906;2023-08-06T10:22:14;4.63;;;1.15;;
70369;SDS011;57790;51.356;-2.906;2023-08-06T10:25:17;4.68;;;0.80;;
70369;SDS011;57790;51.356;-2.906;2023-08-06T10:28:17;3.80;;;1.00;;
70369;SDS011;57790;51.356;-2.906;2023-08-06T10:31:19;3.65;;;0.77;;
70369;SDS011;57790;51.356;-2.906;2023-08-06T10:34:19;4.53;;;0.90;;
70369;SDS011;57790;51.356;-2.906;2023-08-06T10:37:20;3.97;;;0.90;;
70369;SDS011;57790;51.356;-2.906;2023-08-06T10:40:21;3.78;;;0.80;;
70369;SDS011;57790;51.356;-2.906;2023-08-06T10:43:32;2.97;;;0.80;;
70369;SDS011;57790;51.356;-2.906;2023-08-06T10:46:38;4.05;;;0.65;;
70369;SDS011;57790;51.356;-2.906;2023-08-06T10:49:38;5.27;;;0.80;;
70369;SDS011;57790;51.356;-2.906;2023-08-06T10:52:39;3.23;;;0.70;;
70369;SDS011;57790;51.356;-2.906;2023-08-06T10:55:40;3.53;;;0.80;;
70369;SDS011;57790;51.356;-2.906;2023-08-06T10:58:40;3.90;;;0.60;;
70369;SDS011;57790;51.356;-2.906;2023-08-06T11:01:42;2.92;;;0.73;;
70369;SDS011;57790;51.356;-2.906;2023-08-06T11:04:42;3.50;;;0.80;;
70369;SDS011;57790;51.356;-2.906;2023-08-06T11:07:43;3.13;;;0.80;;
70369;SDS011;57790;51.356;-2.906;2023-08-06T11:10:43;3.83;;;0.70;;
70369;SDS011;57790;51.356;-2.906;2023-08-06T11:13:44;3.93;;;1.00;;
70369;SDS011;57790;51.356;-2.906;2023-08-06T11:16:46;3.40;;;0.80;;
70369;SDS011;57790;51.356;-2.906;2023-08-06T11:19:46;2.53;;;0.80;;
70369;SDS011;57790;51.356;-2.906;2023-08-06T11:22:47;3.08;;;0.70;;
70369;SDS011;57790;51.356;-2.906;2023-08-06T11:25:47;2.90;;;0.70;;
70369;SDS011;57790;51.356;-2.906;2023-08-06T11:28:48;3.27;;;0.73;;
70369;SDS011;57790;51.356;-2.906;2023-08-06T11:31:49;2.70;;;0.70;;
70369;SDS011;57790;51.356;-2.906;2023-08-06T11:34:49;3.10;;;0.80;;
70369;SDS011;57790;51.356;-2.906;2023-08-06T11:37:50;2.67;;;0.70;;
70369;SDS011;57790;51.356;-2.906;2023-08-06T11:40:51;2.63;;;0.70;;
70369;SDS011;57790;51.356;-2.906;2023-08-06T11:43:51;1.90;;;0.60;;
70369;SDS011;57790;51.356;-2.906;2023-08-06T11:46:52;2.47;;;0.60;;
70369;SDS011;57790;51.356;-2.906;2023-08-06T11:49:55;2.13;;;0.60;;
70369;SDS011;57790;51.356;-2.906;2023-08-06T11:52:56;2.15;;;0.70;;
70369;SDS011;57790;51.356;-2.906;2023-08-06T11:55:58;3.20;;;0.80;;
70369;SDS011;57790;51.356;-2.906;2023-08-06T11:58:59;2.93;;;0.70;;
70369;SDS011;57790;51.356;-2.906;2023-08-06T12:02:01;4.05;;;0.80;;
70369;SDS011;57790;51.356;-2.906;2023-08-06T12:05:12;3.30;;;0.90;;
70369;SDS011;57790;51.356;-2.906;2023-08-06T12:08:14;4.20;;;1.00;;
70369;SDS011;57790;51.356;-2.906;2023-08-06T12:11:14;2.97;;;0.90;;
70369;SDS011;57790;51.356;-2.906;2023-08-06T12:14:15;2.95;;;0.82;;
70369;SDS011;57790;51.356;-2.906;2023-08-06T12:17:15;3.00;;;0.73;;
70369;SDS011;57790;51.356;-2.906;2023-08-06T12:20:16;3.60;;;1.07;;
70369;SDS011;57790;51.356;-2.906;2023-08-06T12:23:16;4.07;;;0.90;;
70369;SDS011;57790;51.356;-2.906;2023-08-06T12:26:16;5.20;;;1.40;;
70369;SDS011;57790;51.356;-2.906;2023-08-06T12:29:17;3.77;;;0.90;;
70369;SDS011;57790;51.356;-2.906;2023-08-06T12:32:17;3.63;;;1.00;;
70369;SDS011;57790;51.356;-2.906;2023-08-06T12:35:19;4.93;;;0.80;;
70369;SDS011;57790;51.356;-2.906;2023-08-06T12:38:20;3.97;;;0.90;;
70369;SDS011;57790;51.356;-2.906;2023-08-06T12:41:21;4.40;;;1.20;;
70369;SDS011;57790;51.356;-2.906;2023-08-06T12:44:21;3.97;;;0.93;;
70369;SDS011;57790;51.356;-2.906;2023-08-06T12:47:22;4.67;;;0.90;;
70369;SDS011;57790;51.356;-2.906;2023-08-06T12:50:22;4.20;;;0.90;;
70369;SDS011;57790;51.356;-2.906;2023-08-06T12:53:23;5.23;;;1.10;;
70369;SDS011;57790;51.356;-2.906;2023-08-06T12:56:23;4.87;;;1.30;;
70369;SDS011;57790;51.356;-2.906;2023-08-06T12:59:23;4.63;;;1.30;;
70369;SDS011;57790;51.356;-2.906;2023-08-06T13:02:24;5.77;;;1.40;;
70369;SDS011;57790;51.356;-2.906;2023-08-06T13:05:25;3.90;;;1.10;;
70369;SDS011;57790;51.356;-2.906;2023-08-06T13:08:26;5.47;;;0.97;;
70369;SDS011;57790;51.356;-2.906;2023-08-06T13:11:26;4.05;;;1.00;;
70369;SDS011;57790;51.356;-2.906;2023-08-06T13:14:27;5.50;;;1.07;;
70369;SDS011;57790;51.356;-2.906;2023-08-06T13:17:28;5.03;;;1.00;;
70369;SDS011;57790;51.356;-2.906;2023-08-06T13:20:30;5.33;;;1.00;;
70369;SDS011;57790;51.356;-2.906;2023-08-06T13:23:31;3.97;;;0.93;;
70369;SDS011;57790;51.356;-2.906;2023-08-06T13:26:31;5.13;;;1.10;;
70369;SDS011;57790;51.356;-2.906;2023-08-06T13:29:31;5.27;;;1.00;;
70369;SDS011;57790;51.356;-2.906;2023-08-06T13:32:32;3.27;;;0.90;;
70369;SDS011;57790;51.356;-2.906;2023-08-06T13:35:33;4.68;;;1.02;;
70369;SDS011;57790;51.356;-2.906;2023-08-06T13:38:34;3.60;;;1.10;;
70369;SDS011;57790;51.356;-2.906;2023-08-06T13:41:36;3.55;;;0.93;;
70369;SDS011;57790;51.356;-2.906;2023-08-06T13:44:37;5.10;;;1.55;;
70369;SDS011;57790;51.356;-2.906;2023-08-06T13:47:38;6.17;;;1.13;;
70369;SDS011;57790;51.356;-2.906;2023-08-06T13:50:38;5.20;;;1.03;;
70369;SDS011;57790;51.356;-2.906;2023-08-06T13:53:39;4.95;;;1.00;;
70369;SDS011;57790;51.356;-2.906;2023-08-06T13:56:39;4.57;;;1.10;;
70369;SDS011;57790;51.356;-2.906;2023-08-06T13:59:40;5.70;;;1.20;;
70369;SDS011;57790;51.356;-2.906;2023-08-06T14:02:41;4.23;;;1.07;;
70369;SDS011;57790;51.356;-2.906;2023-08-06T14:05:43;3.65;;;0.98;;
70369;SDS011;57790;51.356;-2.906;2023-08-06T14:08:44;6.13;;;1.03;;
70369;SDS011;57790;51.356;-2.906;2023-08-06T14:11:44;4.47;;;0.90;;
70369;SDS011;57790;51.356;-2.906;2023-08-06T14:14:45;4.85;;;1.02;;
70369;SDS011;57790;51.356;-2.906;2023-08-06T14:17:45;6.50;;;1.13;;
70369;SDS011;57790;51.356;-2.906;2023-08-06T14:20:46;4.90;;;1.23;;
70369;SDS011;57790;51.356;-2.906;2023-08-06T14:23:46;5.67;;;1.20;;
70369;SDS011;57790;51.356;-2.906;2023-08-06T14:26:47;3.20;;;0.77;;
70369;SDS011;57790;51.356;-2.906;2023-08-06T14:29:47;3.80;;;0.90;;
70369;SDS011;57790;51.356;-2.906;2023-08-06T14:32:48;3.37;;;1.10;;
70369;SDS011;57790;51.356;-2.906;2023-08-06T14:35:48;3.85;;;1.00;;
70369;SDS011;57790;51.356;-2.906;2023-08-06T14:38:48;5.17;;;1.00;;
70369;SDS011;57790;51.356;-2.906;2023-08-06T14:41:49;5.40;;;1.27;;
70369;SDS011;57790;51.356;-2.906;2023-08-06T14:44:49;7.90;;;1.50;;
70369;SDS011;57790;51.356;-2.906;2023-08-06T14:47:50;5.70;;;1.13;;
70369;SDS011;57790;51.356;-2.906;2023-08-06T14:50:51;5.87;;;1.20;;
70369;SDS011;57790;51.356;-2.906;2023-08-06T14:53:51;4.67;;;1.30;;
70369;SDS011;57790;51.356;-2.906;2023-08-06T14:56:52;4.78;;;0.98;;
70369;SDS011;57790;51.356;-2.906;2023-08-06T14:59:53;6.63;;;1.10;;
70369;SDS011;57790;51.356;-2.906;2023-08-06T15:02:54;6.07;;;1.10;;
70369;SDS011;57790;51.356;-2.906;2023-08-06T15:05:54;3.93;;;0.90;;
70369;SDS011;57790;51.356;-2.906;2023-08-06T15:08:54;5.33;;;1.20;;
70369;SDS011;57790;51.356;-2.906;2023-08-06T15:11:58;5.13;;;0.98;;
70369;SDS011;57790;51.356;-2.906;2023-08-06T15:14:58;5.07;;;1.43;;
70369;SDS011;57790;51.356;-2.906;2023-08-06T15:18:00;5.72;;;1.15;;
70369;SDS011;57790;51.356;-2.906;2023-08-06T15:21:01;3.43;;;1.07;;
70369;SDS011;57790;51.356;-2.906;2023-08-06T15:24:01;5.57;;;1.03;;
70369;SDS011;57790;51.356;-2.906;2023-08-06T15:27:04;4.60;;;1.30;;
70369;SDS011;57790;51.356;-2.906;2023-08-06T15:30:04;4.60;;;1.10;;
70369;SDS011;57790;51.356;-2.906;2023-08-06T15:33:05;5.25;;;1.10;;
70369;SDS011;57790;51.356;-2.906;2023-08-06T15:36:06;6.87;;;1.33;;
70369;SDS011;57790;51.356;-2.906;2023-08-06T15:39:06;5.15;;;1.10;;
70369;SDS011;57790;51.356;-2.906;2023-08-06T15:42:06;5.83;;;1.07;;
70369;SDS011;57790;51.356;-2.906;2023-08-06T15:45:07;4.17;;;1.10;;
70369;SDS011;57790;51.356;-2.906;2023-08-06T15:48:08;3.38;;;1.00;;
70369;SDS011;57790;51.356;-2.906;2023-08-06T15:51:11;4.63;;;1.13;;
70369;SDS011;57790;51.356;-2.906;2023-08-06T15:54:12;4.13;;;1.10;;
70369;SDS011;57790;51.356;-2.906;2023-08-06T15:57:12;4.33;;;1.03;;
70369;SDS011;57790;51.356;-2.906;2023-08-06T16:00:13;5.33;;;1.23;;
70369;SDS011;57790;51.356;-2.906;2023-08-06T16:03:13;4.13;;;1.10;;
70369;SDS011;57790;51.356;-2.906;2023-08-06T16:06:14;4.90;;;1.00;;
70369;SDS011;57790;51.356;-2.906;2023-08-06T16:09:14;6.63;;;1.23;;
70369;SDS011;57790;51.356;-2.906;2023-08-06T16:12:15;6.47;;;1.25;;
70369;SDS011;57790;51.356;-2.906;2023-08-06T16:15:19;3.58;;;1.00;;
70369;SDS011;57790;51.356;-2.906;2023-08-06T16:18:20;4.37;;;1.03;;
70369;SDS011;57790;51.356;-2.906;2023-08-06T16:21:20;4.60;;;1.10;;
70369;SDS011;57790;51.356;-2.906;2023-08-06T16:24:21;7.28;;;1.10;;
70369;SDS011;57790;51.356;-2.906;2023-08-06T16:27:22;7.57;;;1.10;;
70369;SDS011;57790;51.356;-2.906;2023-08-06T16:30:22;6.27;;;1.13;;
70369;SDS011;57790;51.356;-2.906;2023-08-06T16:33:22;6.33;;;1.10;;
70369;SDS011;57790;51.356;-2.906;2023-08-06T16:36:24;5.60;;;1.27;;
70369;SDS011;57790;51.356;-2.906;2023-08-06T16:39:24;8.80;;;1.50;;
70369;SDS011;57790;51.356;-2.906;2023-08-06T16:42:27;5.28;;;1.10;;
70369;SDS011;57790;51.356;-2.906;2023-08-06T16:45:29;5.83;;;1.50;;
70369;SDS011;57790;51.356;-2.906;2023-08-06T16:48:30;6.20;;;1.75;;
70369;SDS011;57790;51.356;-2.906;2023-08-06T16:51:30;5.50;;;1.48;;
70369;SDS011;57790;51.356;-2.906;2023-08-06T16:54:31;6.87;;;1.33;;
70369;SDS011;57790;51.356;-2.906;2023-08-06T16:57:32;5.57;;;1.20;;
70369;SDS011;57790;51.356;-2.906;2023-08-06T17:00:32;7.35;;;1.50;;
70369;SDS011;57790;51.356;-2.906;2023-08-06T17:03:33;4.00;;;1.00;;
70369;SDS011;57790;51.356;-2.906;2023-08-06T17:06:34;7.90;;;1.13;;
70369;SDS011;57790;51.356;-2.906;2023-08-06T17:09:34;9.50;;;1.47;;
70369;SDS011;57790;51.356;-2.906;2023-08-06T17:12:35;5.67;;;1.27;;
70369;SDS011;57790;51.356;-2.906;2023-08-06T17:15:35;4.47;;;1.20;;
70369;SDS011;57790;51.356;-2.906;2023-08-06T17:18:36;6.37;;;1.40;;
70369;SDS011;57790;51.356;-2.906;2023-08-06T17:21:36;4.23;;;1.30;;
70369;SDS011;57790;51.356;-2.906;2023-08-06T17:24:38;5.72;;;1.63;;
70369;SDS011;57790;51.356;-2.906;2023-08-06T17:27:38;5.83;;;1.30;;
70369;SDS011;57790;51.356;-2.906;2023-08-06T17:30:39;6.65;;;1.30;;
70369;SDS011;57790;51.356;-2.906;2023-08-06T17:33:41;6.18;;;1.35;;
70369;SDS011;57790;51.356;-2.906;2023-08-06T17:36:41;6.57;;;1.60;;
70369;SDS011;57790;51.356;-2.906;2023-08-06T17:39:41;6.33;;;1.40;;
70369;SDS011;57790;51.356;-2.906;2023-08-06T17:42:42;6.83;;;1.43;;
70369;SDS011;57790;51.356;-2.906;2023-08-06T17:45:42;4.55;;;1.17;;
70369;SDS011;57790;51.356;-2.906;2023-08-06T17:48:44;5.80;;;1.20;;
70369;SDS011;57790;51.356;-2.906;2023-08-06T17:51:45;5.63;;;1.10;;
70369;SDS011;57790;51.356;-2.906;2023-08-06T17:54:45;4.53;;;1.17;;
70369;SDS011;57790;51.356;-2.906;2023-08-06T17:57:46;6.20;;;1.50;;